createdAt,value
2022-08-27T00:02:36.377Z,12.15
2022-08-27T00:05:40.560Z,11.50
2022-08-27T00:08:45.781Z,10.40
2022-08-27T00:11:50.022Z,15.77
2022-08-27T00:14:53.477Z,9.98
2022-08-27T00:17:59.177Z,14.93
2022-08-27T00:21:03.163Z,9.40
2022-08-27T00:27:09.892Z,14.02
2022-08-27T00:30:18.456Z,10.82
2022-08-27T00:33:23.543Z,11.20
2022-08-27T00:36:26.849Z,6.82
2022-08-27T00:39:30.204Z,7.70
2022-08-27T00:42:33.972Z,11.05
2022-08-27T00:48:46.036Z,16.13
2022-08-27T00:51:58.349Z,12.43
2022-08-27T00:55:09.837Z,10.82
2022-08-27T00:58:20.197Z,16.70
2022-08-27T01:01:29.149Z,9.90
2022-08-27T01:04:38.541Z,12.27
2022-08-27T01:07:45.222Z,9.93
2022-08-27T01:10:51.589Z,13.30
2022-08-27T01:14:00.897Z,19.50
2022-08-27T01:17:07.134Z,10.90
2022-08-27T01:20:20.226Z,15.18
2022-08-27T01:23:32.967Z,11.02
2022-08-27T01:26:38.211Z,8.60
2022-08-27T01:29:42.350Z,12.95
2022-08-27T01:32:47.067Z,14.90
2022-08-27T01:35:53.003Z,12.00
2022-08-27T01:38:57.446Z,12.50
2022-08-27T01:42:07.450Z,19.65
2022-08-27T01:45:16.952Z,12.68
2022-08-27T01:48:23.177Z,12.70
2022-08-27T01:51:26.397Z,13.38
2022-08-27T01:54:31.119Z,14.50
2022-08-27T01:57:36.043Z,12.55
2022-08-27T02:00:44.307Z,14.65
2022-08-27T02:03:48.363Z,12.63
2022-08-27T02:06:51.668Z,14.32
2022-08-27T02:09:55.465Z,11.93
2022-08-27T02:13:00.420Z,12.55
2022-08-27T02:16:05.217Z,11.20
2022-08-27T02:19:09.740Z,11.43
2022-08-27T02:22:13.195Z,12.88
2022-08-27T02:25:20.002Z,13.25
2022-08-27T02:28:24.631Z,11.50
2022-08-27T02:31:28.887Z,10.13
2022-08-27T02:34:32.108Z,11.70
2022-08-27T02:37:37.821Z,14.67
2022-08-27T02:40:41.455Z,16.67
2022-08-27T02:43:46.479Z,9.23
2022-08-27T02:46:50.041Z,12.85
2022-08-27T02:49:56.927Z,13.30
2022-08-27T02:53:01.223Z,8.97
2022-08-27T02:56:05.141Z,8.75
2022-08-27T02:59:10.245Z,9.30
2022-08-27T03:02:13.580Z,9.75
2022-08-27T03:05:19.308Z,10.73
2022-08-27T03:08:24.642Z,8.15
2022-08-27T03:11:28.203Z,11.38
2022-08-27T03:14:32.972Z,9.25
2022-08-27T03:17:50.554Z,5.50
2022-08-27T03:20:56.671Z,8.10
2022-08-27T03:24:09.330Z,7.10
2022-08-27T03:27:17.958Z,11.55
2022-08-27T03:30:24.466Z,9.07
2022-08-27T03:33:30.145Z,11.15
2022-08-27T03:36:33.625Z,10.68
2022-08-27T03:39:36.856Z,10.13
2022-08-27T03:42:40.226Z,10.27
2022-08-27T03:45:48.339Z,7.45
2022-08-27T03:49:04.702Z,9.25
2022-08-27T03:52:08.886Z,10.70
2022-08-27T03:55:12.415Z,12.23
2022-08-27T03:58:16.896Z,11.65
2022-08-27T04:01:21.526Z,12.68
2022-08-27T04:04:25.751Z,12.63
2022-08-27T04:07:29.197Z,14.18
2022-08-27T04:10:34.783Z,12.75
2022-08-27T04:13:38.693Z,16.55
2022-08-27T04:16:43.580Z,10.27
2022-08-27T04:19:46.732Z,12.38
2022-08-27T04:22:49.943Z,10.30
2022-08-27T04:25:53.155Z,8.93
2022-08-27T04:28:58.085Z,11.23
2022-08-27T04:32:03.385Z,12.95
2022-08-27T04:35:07.510Z,10.13
2022-08-27T04:38:11.084Z,12.02
2022-08-27T04:41:21.133Z,9.68
2022-08-27T04:44:25.972Z,13.45
2022-08-27T04:47:31.035Z,13.63
2022-08-27T04:50:34.937Z,12.18
2022-08-27T04:53:38.121Z,12.70
2022-08-27T04:56:41.557Z,13.85
2022-08-27T04:59:44.990Z,11.70
2022-08-27T05:02:49.657Z,16.58
2022-08-27T05:05:54.770Z,11.82
2022-08-27T05:08:58.545Z,11.55
2022-08-27T05:12:03.453Z,10.73
2022-08-27T05:15:08.679Z,14.82
2022-08-27T05:18:13.709Z,14.48
2022-08-27T05:21:25.518Z,12.93
2022-08-27T05:24:28.899Z,7.82
2022-08-27T05:27:32.121Z,11.65
2022-08-27T05:30:38.731Z,7.63
2022-08-27T05:33:44.981Z,7.15
2022-08-27T05:36:48.696Z,7.00
2022-08-27T05:39:52.589Z,7.00
2022-08-27T05:42:55.880Z,4.88
2022-08-27T05:45:59.412Z,9.38
2022-08-27T05:49:04.306Z,8.65
2022-08-27T05:52:11.359Z,6.65
2022-08-27T05:55:14.652Z,6.25
2022-08-27T05:58:31.846Z,6.68
2022-08-27T06:01:38.855Z,4.10
2022-08-27T06:04:43.438Z,5.82
2022-08-27T06:07:46.823Z,4.75
2022-08-27T06:10:51.454Z,4.63
2022-08-27T06:13:54.675Z,5.10
2022-08-27T06:17:00.757Z,3.73
2022-08-27T06:20:09.135Z,3.90
2022-08-27T06:23:12.762Z,5.50
2022-08-27T06:26:19.988Z,4.75
2022-08-27T06:29:25.058Z,5.28
2022-08-27T06:32:28.204Z,3.20
2022-08-27T06:35:35.569Z,2.10
2022-08-27T06:38:39.784Z,2.17
2022-08-27T06:41:44.157Z,1.15
2022-08-27T06:44:47.769Z,1.90
2022-08-27T06:47:51.000Z,2.13
2022-08-27T06:50:55.517Z,2.47
2022-08-27T06:54:02.307Z,1.48
2022-08-27T06:57:05.934Z,2.13
2022-08-27T07:00:10.970Z,2.90
2022-08-27T07:03:14.641Z,2.03
2022-08-27T07:06:19.623Z,1.25
2022-08-27T07:09:24.682Z,3.08
2022-08-27T07:12:30.425Z,2.75
2022-08-27T07:15:35.134Z,3.20
2022-08-27T07:18:41.145Z,3.22
2022-08-27T07:21:46.178Z,6.40
2022-08-27T07:24:51.617Z,2.78
2022-08-27T07:27:55.486Z,4.60
2022-08-27T07:30:58.897Z,4.18
2022-08-27T07:34:02.288Z,5.55
2022-08-27T07:37:07.479Z,8.52
2022-08-27T07:40:14.886Z,3.67
2022-08-27T07:43:35.897Z,3.45
2022-08-27T07:46:40.525Z,3.33
2022-08-27T07:49:45.035Z,3.20
2022-08-27T07:52:49.650Z,5.93
2022-08-27T07:55:52.930Z,3.42
2022-08-27T07:58:56.505Z,2.55
2022-08-27T08:01:59.918Z,4.10
2022-08-27T08:05:03.238Z,3.13
2022-08-27T08:08:08.248Z,3.63
2022-08-27T08:11:14.235Z,2.47
2022-08-27T08:14:17.737Z,6.47
2022-08-27T08:17:21.235Z,7.55
2022-08-27T08:20:54.343Z,4.60
2022-08-27T08:23:49.550Z,3.53
2022-08-27T08:26:52.848Z,2.65
2022-08-27T08:29:56.229Z,5.00
2022-08-27T08:32:59.462Z,6.10
2022-08-27T08:36:08.270Z,3.95
2022-08-27T08:39:13.233Z,4.15
2022-08-27T08:42:32.018Z,3.85
2022-08-27T08:45:42.195Z,3.70
2022-08-27T08:48:53.154Z,2.95
2022-08-27T08:52:09.409Z,2.90
2022-08-27T08:55:36.919Z,4.28
2022-08-27T08:58:48.794Z,4.38
2022-08-27T09:01:54.692Z,4.28
2022-08-27T09:05:06.288Z,4.35
2022-08-27T09:08:37.623Z,5.43
2022-08-27T09:11:56.238Z,6.85
2022-08-27T09:15:06.224Z,3.75
2022-08-27T09:18:16.604Z,4.18
2022-08-27T09:21:33.020Z,3.38
2022-08-27T09:24:49.716Z,4.20
2022-08-27T09:28:02.311Z,5.65
2022-08-27T09:31:09.523Z,3.00
2022-08-27T09:34:13.580Z,3.75
2022-08-27T09:40:32.161Z,3.67
2022-08-27T09:43:39.190Z,3.47
2022-08-27T09:46:57.888Z,3.90
2022-08-27T09:50:09.599Z,3.65
2022-08-27T09:53:22.467Z,3.08
2022-08-27T09:56:31.808Z,3.28
2022-08-27T09:59:39.002Z,4.93
2022-08-27T10:02:52.934Z,6.20
2022-08-27T10:05:56.589Z,2.65
2022-08-27T10:09:07.367Z,3.63
2022-08-27T10:12:21.912Z,3.80
2022-08-27T10:15:41.225Z,2.70
2022-08-27T10:19:00.437Z,3.20
2022-08-27T10:22:15.349Z,3.42
2022-08-27T10:25:31.699Z,2.75
2022-08-27T10:28:55.176Z,3.97
2022-08-27T10:32:16.651Z,3.58
2022-08-27T10:35:26.215Z,3.53
2022-08-27T10:38:43.836Z,4.10
2022-08-27T10:42:02.359Z,3.15
2022-08-27T10:45:31.172Z,3.17
2022-08-27T10:48:46.707Z,4.55
2022-08-27T10:51:58.943Z,2.35
2022-08-27T10:55:11.197Z,4.30
2022-08-27T10:58:38.300Z,2.83
2022-08-27T11:01:52.478Z,4.18
2022-08-27T11:08:15.181Z,3.92
2022-08-27T11:12:12.793Z,4.03
2022-08-27T11:15:04.547Z,4.22
2022-08-27T11:18:28.588Z,3.10
2022-08-27T11:21:42.228Z,3.42
2022-08-27T11:24:55.258Z,3.33
2022-08-27T11:28:01.479Z,5.00
2022-08-27T11:31:14.452Z,4.47
2022-08-27T11:34:28.679Z,2.65
2022-08-27T11:41:24.451Z,2.88
2022-08-27T11:44:29.258Z,3.65
2022-08-27T11:47:32.803Z,2.70
2022-08-27T11:50:38.745Z,3.80
2022-08-27T11:53:57.555Z,4.15
2022-08-27T11:57:00.980Z,2.97
2022-08-27T12:00:20.113Z,5.80
2022-08-27T12:03:32.506Z,4.15
2022-08-27T12:06:46.097Z,5.30
2022-08-27T12:10:25.262Z,8.77
2022-08-27T12:13:40.524Z,4.13
2022-08-27T12:16:56.114Z,5.28
2022-08-27T12:20:15.409Z,5.10
2022-08-27T12:23:42.366Z,3.40
2022-08-27T12:27:00.968Z,3.75
2022-08-27T12:30:23.051Z,5.85
2022-08-27T12:33:34.561Z,4.80
2022-08-27T12:36:38.003Z,4.85
2022-08-27T12:39:49.412Z,3.58
2022-08-27T12:43:09.391Z,3.78
2022-08-27T12:46:18.442Z,3.55
2022-08-27T12:49:38.975Z,3.50
2022-08-27T12:53:23.195Z,3.40
2022-08-27T12:56:59.008Z,3.50
2022-08-27T13:00:19.111Z,3.95
2022-08-27T13:03:33.677Z,4.60
2022-08-27T13:06:38.020Z,3.92
2022-08-27T13:09:41.703Z,3.42
2022-08-27T13:12:47.487Z,3.97
2022-08-27T13:15:58.502Z,5.57
2022-08-27T13:19:02.174Z,4.80
2022-08-27T13:22:07.696Z,5.35
2022-08-27T13:25:23.607Z,4.07
2022-08-27T13:28:30.534Z,3.95
2022-08-27T13:31:37.132Z,3.67
2022-08-27T13:34:42.423Z,3.72
2022-08-27T13:37:53.235Z,3.03
2022-08-27T13:41:01.289Z,4.93
2022-08-27T13:44:12.067Z,3.92
2022-08-27T13:47:22.056Z,5.97
2022-08-27T13:50:28.897Z,3.90
2022-08-27T13:53:52.349Z,3.33
2022-08-27T13:57:08.202Z,4.32
2022-08-27T14:00:17.089Z,4.35
2022-08-27T14:03:34.055Z,3.97
2022-08-27T14:06:47.092Z,3.47
2022-08-27T14:09:55.703Z,5.22
2022-08-27T14:13:01.953Z,4.00
2022-08-27T14:16:23.195Z,4.20
2022-08-27T14:19:36.187Z,4.22
2022-08-27T14:22:39.928Z,6.40
2022-08-27T14:25:43.260Z,3.50
2022-08-27T14:28:47.285Z,4.38
2022-08-27T14:31:50.470Z,4.45
2022-08-27T14:34:55.068Z,4.20
2022-08-27T14:38:02.295Z,4.60
2022-08-27T14:41:06.705Z,8.43
2022-08-27T14:44:10.207Z,4.28
2022-08-27T14:47:16.000Z,4.50
2022-08-27T14:50:21.590Z,4.40
2022-08-27T14:53:25.314Z,4.88
2022-08-27T14:56:28.924Z,11.82
2022-08-27T14:59:33.873Z,4.22
2022-08-27T15:02:42.800Z,5.05
2022-08-27T15:05:47.749Z,10.20
2022-08-27T15:08:53.243Z,4.78
2022-08-27T15:11:58.357Z,5.70
2022-08-27T15:15:01.665Z,4.78
2022-08-27T15:18:05.755Z,6.68
2022-08-27T15:21:10.571Z,5.82
2022-08-27T15:24:20.290Z,5.90
2022-08-27T15:27:26.210Z,3.78
2022-08-27T15:30:41.453Z,5.72
2022-08-27T15:33:45.481Z,3.75
2022-08-27T15:36:50.536Z,3.72
2022-08-27T15:39:54.334Z,3.30
2022-08-27T15:43:03.397Z,3.25
2022-08-27T15:46:07.403Z,4.00
2022-08-27T15:49:15.258Z,4.78
2022-08-27T15:52:22.928Z,3.88
2022-08-27T15:55:32.103Z,5.32
2022-08-27T15:58:37.799Z,3.30
2022-08-27T16:01:41.509Z,27.08
2022-08-27T16:04:49.192Z,8.50
2022-08-27T16:07:53.875Z,27.17
2022-08-27T16:10:58.183Z,30.25
2022-08-27T16:14:03.129Z,15.70
2022-08-27T16:17:06.510Z,4.97
2022-08-27T16:20:16.322Z,3.78
2022-08-27T16:23:21.466Z,4.15
2022-08-27T16:26:24.733Z,5.25
2022-08-27T16:29:28.065Z,4.15
2022-08-27T16:32:33.557Z,3.70
2022-08-27T16:35:37.151Z,4.38
2022-08-27T16:38:42.164Z,6.72
2022-08-27T16:41:46.713Z,5.93
2022-08-27T16:44:51.109Z,4.07
2022-08-27T16:48:12.019Z,5.45
2022-08-27T16:51:19.950Z,5.53
2022-08-27T16:54:25.107Z,4.65
2022-08-27T16:57:28.579Z,12.90
2022-08-27T17:00:32.288Z,11.00
2022-08-27T17:04:07.434Z,11.25
2022-08-27T17:07:07.675Z,7.63
2022-08-27T17:10:13.678Z,4.88
2022-08-27T17:13:20.283Z,4.50
2022-08-27T17:16:29.599Z,5.15
2022-08-27T17:19:34.810Z,3.92
2022-08-27T17:22:38.418Z,3.10
2022-08-27T17:25:43.179Z,4.45
2022-08-27T17:28:47.682Z,5.25
2022-08-27T17:31:51.228Z,11.00
2022-08-27T17:34:55.003Z,7.50
2022-08-27T17:37:58.418Z,4.65
2022-08-27T17:41:11.790Z,5.00
2022-08-27T17:44:22.558Z,6.63
2022-08-27T17:47:26.847Z,2.95
2022-08-27T17:50:30.701Z,10.18
2022-08-27T17:56:40.083Z,3.42
2022-08-27T17:59:43.802Z,5.30
2022-08-27T18:02:50.766Z,5.03
2022-08-27T18:05:54.359Z,4.45
2022-08-27T18:08:57.742Z,4.47
2022-08-27T18:12:02.921Z,3.25
2022-08-27T18:15:14.538Z,3.70
2022-08-27T18:18:18.050Z,5.63
2022-08-27T18:21:25.387Z,2.78
2022-08-27T18:24:29.513Z,4.75
2022-08-27T18:27:37.696Z,4.95
2022-08-27T18:30:44.147Z,4.45
2022-08-27T18:33:47.467Z,4.95
2022-08-27T18:36:52.563Z,5.95
2022-08-27T18:39:55.816Z,4.38
2022-08-27T18:43:00.526Z,4.70
2022-08-27T18:46:05.818Z,4.07
2022-08-27T18:49:10.967Z,4.30
2022-08-27T18:52:14.565Z,3.15
2022-08-27T18:55:21.058Z,6.07
2022-08-27T18:58:27.035Z,4.60
2022-08-27T19:01:31.873Z,6.03
2022-08-27T19:04:35.428Z,8.57
2022-08-27T19:07:39.373Z,5.22
2022-08-27T19:13:50.756Z,5.25
2022-08-27T19:16:56.054Z,5.53
2022-08-27T19:20:01.152Z,5.15
2022-08-27T19:23:04.643Z,3.92
2022-08-27T19:26:15.012Z,3.72
2022-08-27T19:29:19.985Z,5.13
2022-08-27T19:32:24.261Z,5.28
2022-08-27T19:35:27.567Z,9.52
2022-08-27T19:38:32.991Z,6.40
2022-08-27T19:41:36.600Z,5.53
2022-08-27T19:44:41.474Z,4.03
2022-08-27T19:47:44.844Z,4.28
2022-08-27T19:50:48.596Z,5.10
2022-08-27T19:53:54.246Z,4.82
2022-08-27T19:56:57.729Z,5.43
2022-08-27T20:00:02.578Z,4.53
2022-08-27T20:03:05.822Z,5.15
2022-08-27T20:06:09.698Z,8.43
2022-08-27T20:09:16.056Z,5.55
2022-08-27T20:12:19.955Z,4.13
2022-08-27T20:15:25.289Z,4.20
2022-08-27T20:18:28.464Z,3.92
2022-08-27T20:21:32.326Z,5.37
2022-08-27T20:24:35.777Z,4.50
2022-08-27T20:27:39.300Z,3.55
2022-08-27T20:30:45.078Z,4.60
2022-08-27T20:33:52.530Z,6.18
2022-08-27T20:36:56.077Z,5.03
2022-08-27T20:39:59.425Z,12.70
2022-08-27T20:43:02.927Z,6.70
2022-08-27T20:46:10.161Z,4.32
2022-08-27T20:49:14.420Z,5.43
2022-08-27T20:52:19.196Z,6.25
2022-08-27T20:55:23.706Z,5.90
2022-08-27T20:58:45.220Z,4.95
2022-08-27T21:01:49.974Z,5.30
2022-08-27T21:04:54.269Z,4.28
2022-08-27T21:07:57.493Z,4.72
2022-08-27T21:11:01.742Z,6.27
2022-08-27T21:14:05.247Z,4.50
2022-08-27T21:17:11.145Z,4.55
2022-08-27T21:20:15.426Z,4.38
2022-08-27T21:23:18.817Z,5.95
2022-08-27T21:26:23.018Z,4.55
2022-08-27T21:29:26.350Z,4.25
2022-08-27T21:32:31.024Z,5.87
2022-08-27T21:35:34.299Z,5.18
2022-08-27T21:38:37.713Z,6.35
2022-08-27T21:41:41.065Z,6.65
2022-08-27T21:44:44.693Z,5.68
2022-08-27T21:47:51.807Z,7.43
2022-08-27T21:50:55.775Z,5.22
2022-08-27T21:54:00.817Z,6.53
2022-08-27T21:57:04.833Z,5.82
2022-08-27T22:03:24.742Z,6.25
2022-08-27T22:06:28.031Z,9.13
2022-08-27T22:09:31.183Z,11.07
2022-08-27T22:12:34.629Z,5.73
2022-08-27T22:15:38.710Z,7.30
2022-08-27T22:18:43.465Z,7.55
2022-08-27T22:21:48.005Z,4.80
2022-08-27T22:24:51.610Z,9.10
2022-08-27T22:27:55.714Z,4.80
2022-08-27T22:34:03.901Z,7.97
2022-08-27T22:37:07.248Z,5.47
2022-08-27T22:40:19.311Z,8.05
2022-08-27T22:43:23.443Z,5.20
2022-08-27T22:46:26.631Z,7.65
2022-08-27T22:49:31.336Z,8.23
2022-08-27T22:52:34.839Z,4.72
2022-08-27T22:55:38.124Z,5.70
2022-08-27T22:58:46.013Z,6.47
2022-08-27T23:01:49.608Z,6.32
2022-08-27T23:04:55.570Z,8.17
2022-08-27T23:07:59.245Z,5.93
2022-08-27T23:11:03.110Z,6.20
2022-08-27T23:14:06.387Z,7.20
2022-08-27T23:17:09.669Z,6.40
2022-08-27T23:20:15.468Z,8.57
2022-08-27T23:23:20.241Z,6.50
2022-08-27T23:26:41.505Z,5.45
2022-08-27T23:29:47.023Z,8.02
2022-08-27T23:32:54.115Z,7.30
2022-08-27T23:35:58.801Z,9.38
2022-08-27T23:39:02.172Z,8.20
2022-08-27T23:42:06.011Z,8.30
2022-08-27T23:45:13.033Z,6.85
2022-08-27T23:48:16.768Z,6.45
2022-08-27T23:51:21.611Z,8.57
2022-08-27T23:54:24.956Z,8.32
2022-08-27T23:57:28.581Z,6.00
